Trenton, NE (69044)

8:57 AM CDT on August 28, 2016 (GMT -0500)
5 North, 1.5 West | | Change Station

Elev 2969 ft 40.24 °N, 101.04 °W | Updated 2 minutes ago

Scattered Clouds
Scattered Clouds
64.0 °F
Feels Like 64.0 °F
N
0.0
Wind Variable Wind from North
Gusts 0.0 mph

Today
High -- | Low -- °F
--% Chance of Precip.
Yesterday
High -- | Low -- °F
Precip. -- in
Pressure 30.04 in
Visibility 10.0 miles
Clouds Scattered Clouds 7000 ft
Dew Point Not available.
Humidity Not available.
Rainfall Not available.
Snow Depth Not available.
7:08 AM 8:21 PM
Waning Crescent, 15% visible
METAR KMCK 281353Z AUTO 17005KT 10SM SCT070 19/17 A3009 RMK AO2 SLP170 T01940172
Pressure 30.04 in
Visibility 10.0 miles
Clouds Scattered Clouds 7000 ft
Dew Point Not available.
Humidity Not available.
Rainfall Not available.
Snow Depth Not available.
7:08 AM 8:21 PM
Waning Crescent, 15% visible
METAR KMCK 281353Z AUTO 17005KT 10SM SCT070 19/17 A3009 RMK AO2 SLP170 T01940172

10-Day Weather Forecast

Almanac

Astronomy

Aug. 28, 2016 Rise Set
Actual Time
Civil Twilight
Nautical Twilight
Astronomical Twilight
Moon
Length of Visible Light
Length of Day
Tomorrow will be .
, % of the Moon is Illuminated

Today's Extremes

State Highs State Lows

Community

WunderPhotos

Upload Photos

1,935,567 photos uploaded!

WunderBlog® & News

Nearby

Air Quality

  Air Quality AQ Index Pollutant
Not available.

Snow Depth

Station Depth Elevation

Earthquake Activity

City Distance Mag. Time & Date
Minimum magnitude displayed is 2.5.

Coastal Water Temperatures

Place Temperature

Stations

Nearby Weather Stations

Station Location Temp. Windchill Dew Point Humidity Wind Precip. Elev Updated Type
                   

Watches & Warnings

There are currently no watches in effect.